createdAt,value
2023-04-30T00:00:12.666Z,7.33
2023-04-30T00:02:40.768Z,7.40
2023-04-30T00:05:09.618Z,7.38
2023-04-30T00:07:42.142Z,7.49
2023-04-30T00:10:10.898Z,7.33
2023-04-30T00:12:38.939Z,7.29
2023-04-30T00:15:07.856Z,7.17
2023-04-30T00:17:35.664Z,7.06
2023-04-30T00:20:03.585Z,6.90
2023-04-30T00:22:33.497Z,6.81
2023-04-30T00:25:03.106Z,6.85
2023-04-30T00:27:31.557Z,6.72
2023-04-30T00:29:59.410Z,7.01
2023-04-30T00:32:27.231Z,7.10
2023-04-30T00:34:55.132Z,7.18
2023-04-30T00:37:22.981Z,6.54
2023-04-30T00:39:53.569Z,7.16
2023-04-30T00:42:22.948Z,7.04
2023-04-30T00:44:50.957Z,7.36
2023-04-30T00:47:18.912Z,7.26
2023-04-30T00:49:47.179Z,7.31
2023-04-30T00:52:15.276Z,7.10
2023-04-30T00:54:43.133Z,7.27
2023-04-30T00:57:13.844Z,7.25
2023-04-30T00:59:43.321Z,6.88
2023-04-30T01:02:11.453Z,7.08
2023-04-30T01:04:39.856Z,7.03
2023-04-30T01:07:08.272Z,7.28
2023-04-30T01:09:36.499Z,7.27
2023-04-30T01:12:11.337Z,7.10
2023-04-30T01:14:52.964Z,6.88
2023-04-30T01:17:29.327Z,7.01
2023-04-30T01:19:57.792Z,6.45
2023-04-30T01:22:37.394Z,6.70
2023-04-30T01:25:20.906Z,6.41
2023-04-30T01:28:10.399Z,6.06
2023-04-30T01:30:40.935Z,6.45
2023-04-30T01:33:09.252Z,6.46
2023-04-30T01:36:09.687Z,6.32
2023-04-30T01:38:47.851Z,6.42
2023-04-30T01:41:27.625Z,6.47
2023-04-30T01:44:13.736Z,6.47
2023-04-30T01:46:43.572Z,6.53
2023-04-30T01:49:21.023Z,6.51
2023-04-30T01:51:56.050Z,6.56
2023-04-30T01:54:31.712Z,6.59
2023-04-30T01:57:05.406Z,5.91
2023-04-30T01:59:36.845Z,6.40
2023-04-30T02:02:05.144Z,5.68
2023-04-30T02:04:33.334Z,6.02
2023-04-30T02:07:01.600Z,6.17
2023-04-30T02:09:29.631Z,5.91
2023-04-30T02:11:57.867Z,5.97
2023-04-30T02:14:26.252Z,5.93
2023-04-30T02:16:55.974Z,5.81
2023-04-30T02:19:23.991Z,5.15
2023-04-30T02:21:51.912Z,5.68
2023-04-30T02:24:19.734Z,5.63
2023-04-30T02:26:47.654Z,5.58
2023-04-30T02:29:15.475Z,5.56
2023-04-30T02:31:43.319Z,5.55
2023-04-30T02:34:13.786Z,5.69
2023-04-30T02:36:41.604Z,5.51
2023-04-30T02:39:10.111Z,5.65
2023-04-30T02:41:37.953Z,5.59
2023-04-30T02:44:06.038Z,5.54
2023-04-30T02:46:34.164Z,5.43
2023-04-30T02:49:02.094Z,5.49
2023-04-30T02:51:32.676Z,5.16
2023-04-30T02:54:00.898Z,5.54
2023-04-30T02:56:29.088Z,5.52
2023-04-30T02:58:56.942Z,5.51
2023-04-30T03:01:25.095Z,5.32
2023-04-30T03:03:53.118Z,5.30
2023-04-30T03:06:20.954Z,5.20
2023-04-30T03:08:50.230Z,5.31
2023-04-30T03:11:18.178Z,5.19
2023-04-30T03:13:46.373Z,5.09
2023-04-30T03:16:14.173Z,4.92
2023-04-30T03:18:41.994Z,5.08
2023-04-30T03:21:09.736Z,5.08
2023-04-30T03:23:38.033Z,5.12
2023-04-30T03:26:08.472Z,5.13
2023-04-30T03:28:36.671Z,4.91
2023-04-30T03:31:06.274Z,4.84
2023-04-30T03:33:34.534Z,5.09
2023-04-30T03:36:02.546Z,5.10
2023-04-30T03:38:31.017Z,5.07
2023-04-30T03:40:58.864Z,4.99
2023-04-30T03:43:28.069Z,4.90
2023-04-30T03:45:55.996Z,4.92
2023-04-30T03:48:23.814Z,4.86
2023-04-30T03:50:51.749Z,4.89
2023-04-30T03:53:19.707Z,4.82
2023-04-30T03:55:47.638Z,4.91
2023-04-30T03:58:16.006Z,4.98
2023-04-30T04:00:45.843Z,4.66
2023-04-30T04:03:14.114Z,4.98
2023-04-30T04:05:43.269Z,4.83
2023-04-30T04:08:11.537Z,5.00
2023-04-30T04:10:39.967Z,4.94
2023-04-30T04:13:08.587Z,4.95
2023-04-30T04:15:36.919Z,4.95
2023-04-30T04:18:07.977Z,4.90
2023-04-30T04:20:35.942Z,4.90
2023-04-30T04:23:04.266Z,4.83
2023-04-30T04:25:33.427Z,5.04
2023-04-30T04:28:01.721Z,5.35
2023-04-30T04:30:29.590Z,3.59
2023-04-30T04:32:58.553Z,5.85
2023-04-30T04:35:27.848Z,6.12
2023-04-30T04:37:56.368Z,6.38
2023-04-30T04:40:24.229Z,6.73
2023-04-30T04:42:52.483Z,6.86
2023-04-30T04:45:20.930Z,7.06
2023-04-30T04:47:50.823Z,6.93
2023-04-30T04:50:19.149Z,7.21
2023-04-30T04:52:48.345Z,6.59
2023-04-30T04:55:16.271Z,6.52
2023-04-30T04:57:44.052Z,6.33
2023-04-30T05:00:13.140Z,6.22
2023-04-30T05:02:41.162Z,6.28
2023-04-30T05:05:10.946Z,5.79
2023-04-30T05:07:38.789Z,5.88
2023-04-30T05:10:09.874Z,5.47
2023-04-30T05:12:37.872Z,5.65
2023-04-30T05:15:06.621Z,5.70
2023-04-30T05:17:34.573Z,5.70
2023-04-30T05:20:02.455Z,5.87
2023-04-30T05:22:30.195Z,5.88
2023-04-30T05:24:58.052Z,6.12
2023-04-30T05:27:27.602Z,6.42
2023-04-30T05:29:55.920Z,6.31
2023-04-30T05:32:24.000Z,6.13
2023-04-30T05:34:52.260Z,6.10
2023-04-30T05:37:22.551Z,6.17
2023-04-30T05:39:50.531Z,6.12
2023-04-30T05:42:18.356Z,6.53
2023-04-30T05:44:47.460Z,6.96
2023-04-30T05:47:15.320Z,6.86
2023-04-30T05:49:43.098Z,6.45
2023-04-30T05:52:11.255Z,6.59
2023-04-30T05:54:39.066Z,6.34
2023-04-30T05:57:06.918Z,6.44
2023-04-30T05:59:34.730Z,7.14
2023-04-30T06:02:03.901Z,7.10
2023-04-30T06:04:32.220Z,7.19
2023-04-30T06:07:00.117Z,7.22
2023-04-30T06:09:27.943Z,7.14
2023-04-30T06:11:55.869Z,7.16
2023-04-30T06:14:24.002Z,7.44
2023-04-30T06:16:52.111Z,7.66
2023-04-30T06:19:21.499Z,8.10
2023-04-30T06:21:49.291Z,8.10
2023-04-30T06:24:17.277Z,7.80
2023-04-30T06:26:45.072Z,7.85
2023-04-30T06:29:12.860Z,8.02
2023-04-30T06:31:40.841Z,8.15
2023-04-30T06:34:08.914Z,8.30
2023-04-30T06:36:38.289Z,8.58
2023-04-30T06:39:06.593Z,8.78
2023-04-30T06:41:34.500Z,9.05
2023-04-30T06:44:08.315Z,9.12
2023-04-30T06:46:36.754Z,9.11
2023-04-30T06:49:04.705Z,9.30
2023-04-30T06:51:32.540Z,9.33
2023-04-30T06:54:01.763Z,9.29
2023-04-30T06:56:29.520Z,9.49
2023-04-30T06:58:57.382Z,9.37
2023-04-30T07:01:25.117Z,9.56
2023-04-30T07:03:55.065Z,9.57
2023-04-30T07:06:23.374Z,9.65
2023-04-30T07:08:51.199Z,9.71
2023-04-30T07:11:20.344Z,9.96
2023-04-30T07:13:48.072Z,10.10
2023-04-30T07:16:17.028Z,9.46
2023-04-30T07:18:44.964Z,10.05
2023-04-30T07:21:12.774Z,10.25
2023-04-30T07:23:40.673Z,10.45
2023-04-30T07:26:08.433Z,10.55
2023-04-30T07:28:37.761Z,10.45
2023-04-30T07:31:05.706Z,10.43
2023-04-30T07:33:33.678Z,10.70
2023-04-30T07:36:01.682Z,10.49
2023-04-30T07:38:29.662Z,10.33
2023-04-30T07:40:57.587Z,10.81
2023-04-30T07:43:25.743Z,10.76
2023-04-30T07:45:55.036Z,10.53
2023-04-30T07:48:23.182Z,10.42
2023-04-30T07:50:52.859Z,10.66
2023-04-30T07:53:20.965Z,11.21
2023-04-30T07:55:48.725Z,10.99
2023-04-30T07:58:16.564Z,11.22
2023-04-30T08:00:44.430Z,11.33
2023-04-30T08:03:13.738Z,11.50
2023-04-30T08:05:42.132Z,11.33
2023-04-30T08:08:09.977Z,11.32
2023-04-30T08:10:37.831Z,11.75
2023-04-30T08:13:05.865Z,11.00
2023-04-30T08:15:34.899Z,11.58
2023-04-30T08:18:04.034Z,11.64
2023-04-30T08:20:33.388Z,11.80
2023-04-30T08:23:01.266Z,11.70
2023-04-30T08:25:29.179Z,11.92
2023-04-30T08:27:57.003Z,12.40
2023-04-30T08:30:25.232Z,11.68
2023-04-30T08:32:55.302Z,11.96
2023-04-30T08:35:24.688Z,11.86
2023-04-30T08:37:54.106Z,11.98
2023-04-30T08:40:29.009Z,12.10
2023-04-30T08:43:07.695Z,12.64
2023-04-30T08:45:37.109Z,12.74
2023-04-30T08:48:06.797Z,12.75
2023-04-30T08:50:35.073Z,12.78
2023-04-30T08:53:04.315Z,12.63
2023-04-30T08:55:35.469Z,12.89
2023-04-30T08:58:05.457Z,12.29
2023-04-30T09:00:33.917Z,11.47
2023-04-30T09:03:02.516Z,11.96
2023-04-30T09:05:31.102Z,11.98
2023-04-30T09:08:03.656Z,12.76
2023-04-30T09:10:34.968Z,12.78
2023-04-30T09:13:04.514Z,12.77
2023-04-30T09:15:33.816Z,12.09
2023-04-30T09:18:11.617Z,12.60
2023-04-30T09:20:54.390Z,12.62
2023-04-30T09:23:22.443Z,12.84
2023-04-30T09:25:52.068Z,12.93
2023-04-30T09:28:23.772Z,13.31
2023-04-30T09:30:52.361Z,13.56
2023-04-30T09:33:20.438Z,13.24
2023-04-30T09:35:48.920Z,13.29
2023-04-30T09:38:30.989Z,12.67
2023-04-30T09:41:01.601Z,13.28
2023-04-30T09:43:30.238Z,13.28
2023-04-30T09:46:00.489Z,13.24
2023-04-30T09:48:29.400Z,12.55
2023-04-30T09:50:57.707Z,13.93
2023-04-30T09:53:25.649Z,13.60
2023-04-30T09:55:54.243Z,13.89
2023-04-30T09:58:25.618Z,14.06
2023-04-30T10:00:54.847Z,14.36
2023-04-30T10:03:24.213Z,13.77
2023-04-30T10:05:53.175Z,13.86
2023-04-30T10:08:27.810Z,13.94
2023-04-30T10:11:00.551Z,14.23
2023-04-30T10:13:33.469Z,14.74
2023-04-30T10:16:09.069Z,14.41
2023-04-30T10:18:42.901Z,14.32
2023-04-30T10:21:15.545Z,14.57
2023-04-30T10:23:43.614Z,14.32
2023-04-30T10:26:12.387Z,14.81
2023-04-30T10:28:43.910Z,14.10
2023-04-30T10:31:13.845Z,13.86
2023-04-30T10:33:50.689Z,14.41
2023-04-30T10:36:25.298Z,13.64
2023-04-30T10:38:54.069Z,13.97
2023-04-30T10:41:22.012Z,14.20
2023-04-30T10:43:51.222Z,13.79
2023-04-30T10:46:25.567Z,13.90
2023-04-30T10:48:54.881Z,14.15
2023-04-30T10:51:23.440Z,14.50
2023-04-30T10:53:53.367Z,14.01
2023-04-30T10:56:32.239Z,14.66
2023-04-30T10:59:02.636Z,14.27
2023-04-30T11:01:31.050Z,14.10
2023-04-30T11:04:07.533Z,14.29
2023-04-30T11:06:51.362Z,14.52
2023-04-30T11:09:19.349Z,14.62
2023-04-30T11:11:50.305Z,14.02
2023-04-30T11:14:23.009Z,14.29
2023-04-30T11:16:51.964Z,14.26
2023-04-30T11:19:24.769Z,14.25
2023-04-30T11:22:16.971Z,14.56
2023-04-30T11:24:52.616Z,14.53
2023-04-30T11:27:24.993Z,14.42
2023-04-30T11:29:55.569Z,14.39
2023-04-30T11:32:24.982Z,14.24
2023-04-30T11:34:52.998Z,14.41
2023-04-30T11:37:22.998Z,14.57
2023-04-30T11:39:52.139Z,14.73
2023-04-30T11:42:21.238Z,14.62
2023-04-30T11:44:49.126Z,14.65
2023-04-30T11:47:18.414Z,14.60
2023-04-30T11:49:46.326Z,14.03
2023-04-30T11:52:14.620Z,13.83
2023-04-30T11:54:42.467Z,13.87
2023-04-30T11:57:10.300Z,14.09
2023-04-30T11:59:42.433Z,13.87
2023-04-30T12:02:13.492Z,14.63
2023-04-30T12:04:44.658Z,14.72
2023-04-30T12:07:13.154Z,14.74
2023-04-30T12:10:00.206Z,15.02
2023-04-30T12:12:29.025Z,14.88
2023-04-30T12:14:57.087Z,14.95
2023-04-30T12:17:35.649Z,14.72
2023-04-30T12:20:05.664Z,14.67
2023-04-30T12:22:33.676Z,14.69
2023-04-30T12:25:02.291Z,14.56
2023-04-30T12:27:30.344Z,14.71
2023-04-30T12:29:58.160Z,15.24
2023-04-30T12:32:26.237Z,15.07
2023-04-30T12:34:59.981Z,14.93
2023-04-30T12:37:29.382Z,14.95
2023-04-30T12:39:57.712Z,14.81
2023-04-30T12:42:26.124Z,14.31
2023-04-30T12:44:53.945Z,14.78
2023-04-30T12:47:22.012Z,14.96
2023-04-30T12:49:50.626Z,14.99
2023-04-30T12:52:18.655Z,14.86
2023-04-30T12:54:47.838Z,14.70
2023-04-30T12:57:15.778Z,14.59
2023-04-30T12:59:58.477Z,15.01
2023-04-30T13:02:28.489Z,15.02
2023-04-30T13:04:56.816Z,15.37
2023-04-30T13:07:24.783Z,15.22
2023-04-30T13:09:54.256Z,15.22
2023-04-30T13:12:22.286Z,15.40
2023-04-30T13:14:50.181Z,15.09
2023-04-30T13:17:18.403Z,15.16
2023-04-30T13:19:46.254Z,15.03
2023-04-30T13:22:14.035Z,15.08
2023-04-30T13:24:41.973Z,14.91
2023-04-30T13:27:11.667Z,14.90
2023-04-30T13:29:39.427Z,15.25
2023-04-30T13:32:07.439Z,15.32
2023-04-30T13:34:35.347Z,15.32
2023-04-30T13:37:03.364Z,15.09
2023-04-30T13:39:31.175Z,15.10
2023-04-30T13:41:58.984Z,15.46
2023-04-30T13:44:28.199Z,15.58
2023-04-30T13:46:56.220Z,15.37
2023-04-30T13:49:24.086Z,15.59
2023-04-30T13:51:51.876Z,15.07
2023-04-30T13:54:19.711Z,15.08
2023-04-30T13:56:48.685Z,15.39
2023-04-30T13:59:16.857Z,15.46
2023-04-30T14:01:46.047Z,15.55
2023-04-30T14:04:15.182Z,15.42
2023-04-30T14:06:44.089Z,15.15
2023-04-30T14:09:12.093Z,15.06
2023-04-30T14:11:39.854Z,14.87
2023-04-30T14:14:09.699Z,14.77
2023-04-30T14:16:37.716Z,14.97
2023-04-30T14:19:07.240Z,15.32
2023-04-30T14:21:35.040Z,15.47
2023-04-30T14:24:02.914Z,15.50
2023-04-30T14:26:31.655Z,15.58
2023-04-30T14:28:59.571Z,15.54
2023-04-30T14:31:27.495Z,15.59
2023-04-30T14:33:55.406Z,15.23
2023-04-30T14:36:25.043Z,15.01
2023-04-30T14:38:52.864Z,14.92
2023-04-30T14:41:21.211Z,14.89
2023-04-30T14:43:49.592Z,15.28
2023-04-30T14:46:17.462Z,15.28
2023-04-30T14:48:45.529Z,14.89
2023-04-30T14:51:13.299Z,14.99
2023-04-30T14:53:43.227Z,15.15
2023-04-30T14:56:11.162Z,14.87
2023-04-30T14:58:38.934Z,14.94
2023-04-30T15:01:06.898Z,15.49
2023-04-30T15:03:34.906Z,15.51
2023-04-30T15:06:03.587Z,15.64
2023-04-30T15:08:31.375Z,15.13
2023-04-30T15:11:00.789Z,15.03
2023-04-30T15:13:28.576Z,15.41
2023-04-30T15:15:56.879Z,15.34
2023-04-30T15:18:24.849Z,15.49
2023-04-30T15:20:52.696Z,15.46
2023-04-30T15:23:20.882Z,15.39
2023-04-30T15:25:49.084Z,15.47
2023-04-30T15:28:18.664Z,15.40
2023-04-30T15:30:46.529Z,15.63
2023-04-30T15:33:14.485Z,15.72
2023-04-30T15:35:42.719Z,15.58
2023-04-30T15:38:10.754Z,14.97
2023-04-30T15:40:38.872Z,15.52
2023-04-30T15:43:07.793Z,15.40
2023-04-30T15:45:37.155Z,15.15
2023-04-30T15:48:05.718Z,15.41
2023-04-30T15:50:34.029Z,15.56
2023-04-30T15:53:01.905Z,15.63
2023-04-30T15:55:29.823Z,15.22
2023-04-30T15:57:57.660Z,14.98
2023-04-30T16:00:27.080Z,15.22
2023-04-30T16:02:56.718Z,15.54
2023-04-30T16:05:24.614Z,15.29
2023-04-30T16:07:53.370Z,15.17
2023-04-30T16:10:21.644Z,15.30
2023-04-30T16:12:49.631Z,15.27
2023-04-30T16:15:17.671Z,15.32
2023-04-30T16:17:45.462Z,14.64
2023-04-30T16:20:15.237Z,15.31
2023-04-30T16:22:43.266Z,14.85
2023-04-30T16:25:11.981Z,15.48
2023-04-30T16:27:39.821Z,15.38
2023-04-30T16:30:09.277Z,14.70
2023-04-30T16:32:37.344Z,15.35
2023-04-30T16:35:06.064Z,15.10
2023-04-30T16:37:35.876Z,15.40
2023-04-30T16:40:03.857Z,15.25
2023-04-30T16:42:31.845Z,15.41
2023-04-30T16:44:59.801Z,15.20
2023-04-30T16:47:27.657Z,14.75
2023-04-30T16:49:56.297Z,15.09
2023-04-30T16:52:24.581Z,15.27
2023-04-30T16:54:54.184Z,15.09
2023-04-30T16:57:22.147Z,14.82
2023-04-30T16:59:49.963Z,14.85
2023-04-30T17:02:17.947Z,14.75
2023-04-30T17:04:45.839Z,14.70
2023-04-30T17:07:14.144Z,14.82
2023-04-30T17:09:42.252Z,15.02
2023-04-30T17:12:12.055Z,14.92
2023-04-30T17:14:39.845Z,15.13
2023-04-30T17:17:07.762Z,14.66
2023-04-30T17:19:38.046Z,14.93
2023-04-30T17:22:05.996Z,15.15
2023-04-30T17:24:33.938Z,14.53
2023-04-30T17:27:03.343Z,14.62
2023-04-30T17:29:32.509Z,14.42
2023-04-30T17:32:00.373Z,14.47
2023-04-30T17:34:28.233Z,14.53
2023-04-30T17:36:56.052Z,14.70
2023-04-30T17:39:23.933Z,14.33
2023-04-30T17:41:51.762Z,13.17
2023-04-30T17:44:19.604Z,14.21
2023-04-30T17:46:48.988Z,14.28
2023-04-30T17:49:16.850Z,14.18
2023-04-30T17:51:44.841Z,14.22
2023-04-30T17:54:12.804Z,14.00
2023-04-30T17:56:40.598Z,13.88
2023-04-30T17:59:09.028Z,13.54
2023-04-30T18:01:37.378Z,13.90
2023-04-30T18:04:08.836Z,13.91
2023-04-30T18:06:36.990Z,13.74
2023-04-30T18:09:04.955Z,13.95
2023-04-30T18:11:33.598Z,13.88
2023-04-30T18:14:01.865Z,13.82
2023-04-30T18:16:30.040Z,13.63
2023-04-30T18:18:57.981Z,13.72
2023-04-30T18:21:27.616Z,13.63
2023-04-30T18:23:55.669Z,13.66
2023-04-30T18:26:24.138Z,13.55
2023-04-30T18:28:52.886Z,13.70
2023-04-30T18:31:20.886Z,13.29
2023-04-30T18:33:49.092Z,13.41
2023-04-30T18:36:17.179Z,13.31
2023-04-30T18:38:46.331Z,13.13
2023-04-30T18:41:14.199Z,13.06
2023-04-30T18:43:43.077Z,12.88
2023-04-30T18:46:10.909Z,12.83
2023-04-30T18:48:38.819Z,12.54
2023-04-30T18:51:06.707Z,12.44
2023-04-30T18:53:36.159Z,12.36
2023-04-30T18:56:05.660Z,12.28
2023-04-30T18:58:33.580Z,12.23
2023-04-30T19:01:01.471Z,12.08
2023-04-30T19:03:30.430Z,11.94
2023-04-30T19:05:58.610Z,11.78
2023-04-30T19:08:26.723Z,11.15
2023-04-30T19:10:55.872Z,11.78
2023-04-30T19:13:25.447Z,11.63
2023-04-30T19:15:54.122Z,11.51
2023-04-30T19:18:24.418Z,11.22
2023-04-30T19:20:56.846Z,11.21
2023-04-30T19:23:24.870Z,11.17
2023-04-30T19:25:52.831Z,11.15
2023-04-30T19:28:20.698Z,11.03
2023-04-30T19:30:52.204Z,10.92
2023-04-30T19:33:21.550Z,10.79
2023-04-30T19:35:50.319Z,10.82
2023-04-30T19:38:18.253Z,10.68
2023-04-30T19:40:49.808Z,10.65
2023-04-30T19:43:17.698Z,10.60
2023-04-30T19:45:51.657Z,10.09
2023-04-30T19:48:21.053Z,10.50
2023-04-30T19:50:49.810Z,10.01
2023-04-30T19:53:18.562Z,9.61
2023-04-30T19:55:46.957Z,10.24
2023-04-30T19:58:15.306Z,10.26
2023-04-30T20:00:45.000Z,10.31
2023-04-30T20:03:15.880Z,10.16
2023-04-30T20:05:44.735Z,10.05
2023-04-30T20:08:12.958Z,9.95
2023-04-30T20:10:41.532Z,9.93
2023-04-30T20:13:10.264Z,9.73
2023-04-30T20:15:38.075Z,9.65
2023-04-30T20:18:06.854Z,9.55
2023-04-30T20:20:36.189Z,9.63
2023-04-30T20:23:13.841Z,9.60
2023-04-30T20:25:42.791Z,9.52
2023-04-30T20:28:10.711Z,9.38
2023-04-30T20:30:39.719Z,9.45
2023-04-30T20:33:08.051Z,8.71
2023-04-30T20:35:37.428Z,9.24
2023-04-30T20:38:05.955Z,9.35
2023-04-30T20:40:33.813Z,9.28
2023-04-30T20:43:01.769Z,9.18
2023-04-30T20:45:29.938Z,9.09
2023-04-30T20:47:57.901Z,8.98
2023-04-30T20:50:27.186Z,8.92
2023-04-30T20:52:56.912Z,8.91
2023-04-30T20:55:24.891Z,8.31
2023-04-30T20:57:52.968Z,8.86
2023-04-30T21:00:21.770Z,8.81
2023-04-30T21:02:49.695Z,8.65
2023-04-30T21:05:17.739Z,8.65
2023-04-30T21:07:45.607Z,8.78
2023-04-30T21:10:14.854Z,8.71
2023-04-30T21:12:42.772Z,8.48
2023-04-30T21:15:11.768Z,8.51
2023-04-30T21:17:39.602Z,8.60
2023-04-30T21:20:09.294Z,8.59
2023-04-30T21:22:37.378Z,8.00
2023-04-30T21:25:06.376Z,8.58
2023-04-30T21:27:35.693Z,8.47
2023-04-30T21:30:03.562Z,8.45
2023-04-30T21:32:31.508Z,8.11
2023-04-30T21:34:59.458Z,8.39
2023-04-30T21:37:28.165Z,8.27
2023-04-30T21:39:56.891Z,8.23
2023-04-30T21:42:25.036Z,8.08
2023-04-30T21:44:56.457Z,8.06
2023-04-30T21:47:24.470Z,7.91
2023-04-30T21:49:52.330Z,8.02
2023-04-30T21:52:20.350Z,7.90
2023-04-30T21:54:50.354Z,7.86
2023-04-30T21:57:19.215Z,7.94
2023-04-30T21:59:47.066Z,7.81
2023-04-30T22:02:23.941Z,7.80
2023-04-30T22:04:53.582Z,7.85
2023-04-30T22:07:21.492Z,7.88
2023-04-30T22:09:49.393Z,8.03
2023-04-30T22:12:19.196Z,8.05
2023-04-30T22:14:48.018Z,8.13
2023-04-30T22:17:17.420Z,7.93
2023-04-30T22:19:45.343Z,7.93
2023-04-30T22:22:13.473Z,7.71
2023-04-30T22:24:41.381Z,7.87
2023-04-30T22:27:09.715Z,7.77
2023-04-30T22:29:37.670Z,7.56
2023-04-30T22:32:06.401Z,7.42
2023-04-30T22:34:39.836Z,6.96
2023-04-30T22:37:08.091Z,7.48
2023-04-30T22:39:36.106Z,7.52
2023-04-30T22:42:04.280Z,6.92
2023-04-30T22:44:32.818Z,7.04
2023-04-30T22:47:02.081Z,7.23
2023-04-30T22:49:31.981Z,7.34
2023-04-30T22:52:01.466Z,7.37
2023-04-30T22:54:29.924Z,7.39
2023-04-30T22:56:58.469Z,7.31
2023-04-30T22:59:26.437Z,7.22
2023-04-30T23:01:54.463Z,7.22
2023-04-30T23:04:22.597Z,7.08
2023-04-30T23:06:50.542Z,7.10
2023-04-30T23:09:20.036Z,6.82
2023-04-30T23:11:48.244Z,6.92
2023-04-30T23:14:16.312Z,6.99
2023-04-30T23:16:44.512Z,6.92
2023-04-30T23:19:12.913Z,6.65
2023-04-30T23:21:40.775Z,6.85
2023-04-30T23:24:08.563Z,6.59
2023-04-30T23:26:37.961Z,6.65
2023-04-30T23:29:05.916Z,6.63
2023-04-30T23:31:33.815Z,6.40
2023-04-30T23:34:01.592Z,6.36
2023-04-30T23:36:29.502Z,6.66
2023-04-30T23:38:57.312Z,6.65
2023-04-30T23:41:25.995Z,6.62
2023-04-30T23:43:55.211Z,6.59
2023-04-30T23:46:23.328Z,6.62
2023-04-30T23:48:51.782Z,6.47
2023-04-30T23:51:21.749Z,6.51
2023-04-30T23:53:49.691Z,6.50
2023-04-30T23:56:17.493Z,6.52
2023-04-30T23:58:45.320Z,6.37
